sensor_id;sensor_type;location;lat;lon;timestamp;P1;durP1;ratioP1;P2;durP2;ratioP2
41685;SDS011;27370;42.764;23.432;2023-05-20T00:00:36;14.70;;;8.18;;
41685;SDS011;27370;42.764;23.432;2023-05-20T00:03:02;13.60;;;8.98;;
41685;SDS011;27370;42.764;23.432;2023-05-20T00:05:28;14.18;;;8.68;;
41685;SDS011;27370;42.764;23.432;2023-05-20T00:07:53;16.85;;;8.82;;
41685;SDS011;27370;42.764;23.432;2023-05-20T00:10:19;15.68;;;9.30;;
41685;SDS011;27370;42.764;23.432;2023-05-20T00:12:44;13.57;;;8.30;;
41685;SDS011;27370;42.764;23.432;2023-05-20T00:15:10;15.45;;;8.93;;
41685;SDS011;27370;42.764;23.432;2023-05-20T00:17:38;15.15;;;8.85;;
41685;SDS011;27370;42.764;23.432;2023-05-20T00:20:04;14.35;;;8.50;;
41685;SDS011;27370;42.764;23.432;2023-05-20T00:22:30;14.85;;;8.93;;
41685;SDS011;27370;42.764;23.432;2023-05-20T00:24:56;13.75;;;8.75;;
41685;SDS011;27370;42.764;23.432;2023-05-20T00:27:21;16.95;;;8.93;;
41685;SDS011;27370;42.764;23.432;2023-05-20T00:29:47;15.52;;;9.13;;
41685;SDS011;27370;42.764;23.432;2023-05-20T00:32:12;15.25;;;8.98;;
41685;SDS011;27370;42.764;23.432;2023-05-20T00:34:38;13.25;;;8.35;;
41685;SDS011;27370;42.764;23.432;2023-05-20T00:37:03;15.80;;;9.07;;
41685;SDS011;27370;42.764;23.432;2023-05-20T00:39:29;13.82;;;9.00;;
41685;SDS011;27370;42.764;23.432;2023-05-20T00:41:55;17.10;;;10.13;;
41685;SDS011;27370;42.764;23.432;2023-05-20T00:44:24;20.60;;;11.50;;
41685;SDS011;27370;42.764;23.432;2023-05-20T00:46:50;34.55;;;19.25;;
41685;SDS011;27370;42.764;23.432;2023-05-20T00:49:17;31.23;;;22.58;;
41685;SDS011;27370;42.764;23.432;2023-05-20T00:51:43;25.60;;;17.90;;
41685;SDS011;27370;42.764;23.432;2023-05-20T00:54:09;25.73;;;19.45;;
41685;SDS011;27370;42.764;23.432;2023-05-20T00:56:35;39.58;;;20.38;;
41685;SDS011;27370;42.764;23.432;2023-05-20T00:59:01;18.40;;;14.18;;
41685;SDS011;27370;42.764;23.432;2023-05-20T01:01:27;20.63;;;13.85;;
41685;SDS011;27370;42.764;23.432;2023-05-20T01:03:52;22.20;;;12.07;;
41685;SDS011;27370;42.764;23.432;2023-05-20T01:06:18;23.80;;;13.60;;
41685;SDS011;27370;42.764;23.432;2023-05-20T01:08:44;18.30;;;12.77;;
41685;SDS011;27370;42.764;23.432;2023-05-20T01:11:11;18.55;;;12.07;;
41685;SDS011;27370;42.764;23.432;2023-05-20T01:13:47;18.45;;;11.93;;
41685;SDS011;27370;42.764;23.432;2023-05-20T01:16:18;17.08;;;11.38;;
41685;SDS011;27370;42.764;23.432;2023-05-20T01:18:47;20.40;;;12.02;;
41685;SDS011;27370;42.764;23.432;2023-05-20T01:21:14;20.55;;;11.82;;
41685;SDS011;27370;42.764;23.432;2023-05-20T01:23:40;20.00;;;12.70;;
41685;SDS011;27370;42.764;23.432;2023-05-20T01:26:07;18.48;;;11.35;;
41685;SDS011;27370;42.764;23.432;2023-05-20T01:28:37;19.42;;;12.18;;
41685;SDS011;27370;42.764;23.432;2023-05-20T01:31:04;17.85;;;12.20;;
41685;SDS011;27370;42.764;23.432;2023-05-20T01:33:38;18.85;;;11.90;;
41685;SDS011;27370;42.764;23.432;2023-05-20T01:36:05;15.38;;;10.82;;
41685;SDS011;27370;42.764;23.432;2023-05-20T01:38:32;18.45;;;11.30;;
41685;SDS011;27370;42.764;23.432;2023-05-20T01:41:00;18.55;;;12.10;;
41685;SDS011;27370;42.764;23.432;2023-05-20T01:43:29;16.73;;;11.40;;
41685;SDS011;27370;42.764;23.432;2023-05-20T01:45:54;22.92;;;13.00;;
41685;SDS011;27370;42.764;23.432;2023-05-20T01:48:20;17.52;;;11.55;;
41685;SDS011;27370;42.764;23.432;2023-05-20T01:50:46;19.25;;;12.90;;
41685;SDS011;27370;42.764;23.432;2023-05-20T01:53:11;17.50;;;11.32;;
41685;SDS011;27370;42.764;23.432;2023-05-20T01:55:37;16.92;;;11.52;;
41685;SDS011;27370;42.764;23.432;2023-05-20T01:58:03;15.57;;;9.80;;
41685;SDS011;27370;42.764;23.432;2023-05-20T02:00:31;16.50;;;11.63;;
41685;SDS011;27370;42.764;23.432;2023-05-20T02:02:58;22.63;;;12.07;;
41685;SDS011;27370;42.764;23.432;2023-05-20T02:05:23;19.95;;;12.05;;
41685;SDS011;27370;42.764;23.432;2023-05-20T02:07:49;17.77;;;12.50;;
41685;SDS011;27370;42.764;23.432;2023-05-20T02:10:15;21.92;;;13.20;;
41685;SDS011;27370;42.764;23.432;2023-05-20T02:12:41;17.88;;;11.52;;
41685;SDS011;27370;42.764;23.432;2023-05-20T02:15:07;19.02;;;11.80;;
41685;SDS011;27370;42.764;23.432;2023-05-20T02:17:33;18.13;;;11.68;;
41685;SDS011;27370;42.764;23.432;2023-05-20T02:19:59;19.20;;;13.00;;
41685;SDS011;27370;42.764;23.432;2023-05-20T02:22:25;21.17;;;15.05;;
41685;SDS011;27370;42.764;23.432;2023-05-20T02:24:50;24.77;;;17.70;;
41685;SDS011;27370;42.764;23.432;2023-05-20T02:27:15;21.90;;;15.68;;
41685;SDS011;27370;42.764;23.432;2023-05-20T02:29:41;21.80;;;14.02;;
41685;SDS011;27370;42.764;23.432;2023-05-20T02:32:07;18.88;;;13.05;;
41685;SDS011;27370;42.764;23.432;2023-05-20T02:34:33;19.98;;;13.27;;
41685;SDS011;27370;42.764;23.432;2023-05-20T02:36:58;21.58;;;13.68;;
41685;SDS011;27370;42.764;23.432;2023-05-20T02:39:24;24.58;;;16.00;;
41685;SDS011;27370;42.764;23.432;2023-05-20T02:41:49;30.83;;;22.45;;
41685;SDS011;27370;42.764;23.432;2023-05-20T02:44:15;30.60;;;19.98;;
41685;SDS011;27370;42.764;23.432;2023-05-20T02:46:41;27.00;;;18.17;;
41685;SDS011;27370;42.764;23.432;2023-05-20T02:49:06;21.55;;;16.00;;
41685;SDS011;27370;42.764;23.432;2023-05-20T02:51:33;26.13;;;16.45;;
41685;SDS011;27370;42.764;23.432;2023-05-20T02:53:58;23.45;;;16.38;;
41685;SDS011;27370;42.764;23.432;2023-05-20T02:56:24;25.02;;;17.38;;
41685;SDS011;27370;42.764;23.432;2023-05-20T02:58:51;28.58;;;16.55;;
41685;SDS011;27370;42.764;23.432;2023-05-20T03:01:16;27.83;;;16.88;;
41685;SDS011;27370;42.764;23.432;2023-05-20T03:03:42;25.90;;;16.20;;
41685;SDS011;27370;42.764;23.432;2023-05-20T03:06:09;25.65;;;16.75;;
41685;SDS011;27370;42.764;23.432;2023-05-20T03:08:37;27.13;;;17.42;;
41685;SDS011;27370;42.764;23.432;2023-05-20T03:11:03;31.05;;;19.75;;
41685;SDS011;27370;42.764;23.432;2023-05-20T03:13:29;24.48;;;16.50;;
41685;SDS011;27370;42.764;23.432;2023-05-20T03:15:56;21.38;;;15.10;;
41685;SDS011;27370;42.764;23.432;2023-05-20T03:18:22;26.65;;;16.15;;
41685;SDS011;27370;42.764;23.432;2023-05-20T03:20:48;24.15;;;14.68;;
41685;SDS011;27370;42.764;23.432;2023-05-20T03:23:13;25.17;;;17.00;;
41685;SDS011;27370;42.764;23.432;2023-05-20T03:25:39;27.58;;;18.05;;
41685;SDS011;27370;42.764;23.432;2023-05-20T03:28:04;25.40;;;17.95;;
41685;SDS011;27370;42.764;23.432;2023-05-20T03:30:33;29.52;;;18.00;;
41685;SDS011;27370;42.764;23.432;2023-05-20T03:32:58;27.52;;;16.45;;
41685;SDS011;27370;42.764;23.432;2023-05-20T03:35:24;23.55;;;16.13;;
41685;SDS011;27370;42.764;23.432;2023-05-20T03:37:51;25.48;;;17.15;;
41685;SDS011;27370;42.764;23.432;2023-05-20T03:40:19;28.08;;;18.38;;
41685;SDS011;27370;42.764;23.432;2023-05-20T03:42:45;22.92;;;16.33;;
41685;SDS011;27370;42.764;23.432;2023-05-20T03:45:11;21.65;;;15.65;;
41685;SDS011;27370;42.764;23.432;2023-05-20T03:47:45;25.13;;;15.85;;
41685;SDS011;27370;42.764;23.432;2023-05-20T03:50:11;20.60;;;14.93;;
41685;SDS011;27370;42.764;23.432;2023-05-20T03:52:36;25.40;;;16.30;;
41685;SDS011;27370;42.764;23.432;2023-05-20T03:55:03;23.30;;;15.85;;
41685;SDS011;27370;42.764;23.432;2023-05-20T03:57:29;24.55;;;17.20;;
41685;SDS011;27370;42.764;23.432;2023-05-20T03:59:56;23.20;;;16.00;;
41685;SDS011;27370;42.764;23.432;2023-05-20T04:02:21;20.42;;;14.90;;
41685;SDS011;27370;42.764;23.432;2023-05-20T04:04:48;22.50;;;14.05;;
41685;SDS011;27370;42.764;23.432;2023-05-20T04:07:17;22.02;;;13.27;;
41685;SDS011;27370;42.764;23.432;2023-05-20T04:09:43;17.75;;;12.20;;
41685;SDS011;27370;42.764;23.432;2023-05-20T04:12:09;19.38;;;12.13;;
41685;SDS011;27370;42.764;23.432;2023-05-20T04:14:35;21.83;;;13.25;;
41685;SDS011;27370;42.764;23.432;2023-05-20T04:17:03;17.15;;;12.32;;
41685;SDS011;27370;42.764;23.432;2023-05-20T04:19:30;17.17;;;11.38;;
41685;SDS011;27370;42.764;23.432;2023-05-20T04:21:56;19.40;;;11.20;;
41685;SDS011;27370;42.764;23.432;2023-05-20T04:24:21;17.98;;;10.73;;
41685;SDS011;27370;42.764;23.432;2023-05-20T04:26:50;16.02;;;10.48;;
41685;SDS011;27370;42.764;23.432;2023-05-20T04:29:16;16.35;;;10.23;;
41685;SDS011;27370;42.764;23.432;2023-05-20T04:31:44;16.25;;;10.27;;
41685;SDS011;27370;42.764;23.432;2023-05-20T04:34:10;17.95;;;11.40;;
41685;SDS011;27370;42.764;23.432;2023-05-20T04:36:36;18.23;;;10.65;;
41685;SDS011;27370;42.764;23.432;2023-05-20T04:39:03;17.25;;;10.55;;
41685;SDS011;27370;42.764;23.432;2023-05-20T04:41:32;16.75;;;10.80;;
41685;SDS011;27370;42.764;23.432;2023-05-20T04:43:58;19.77;;;11.38;;
41685;SDS011;27370;42.764;23.432;2023-05-20T04:46:24;18.45;;;11.10;;
41685;SDS011;27370;42.764;23.432;2023-05-20T04:48:50;22.20;;;14.77;;
41685;SDS011;27370;42.764;23.432;2023-05-20T04:51:16;21.00;;;13.38;;
41685;SDS011;27370;42.764;23.432;2023-05-20T04:53:42;21.70;;;17.40;;
41685;SDS011;27370;42.764;23.432;2023-05-20T04:56:09;24.23;;;17.63;;
41685;SDS011;27370;42.764;23.432;2023-05-20T04:58:35;37.58;;;33.55;;
41685;SDS011;27370;42.764;23.432;2023-05-20T05:01:02;31.58;;;27.52;;
41685;SDS011;27370;42.764;23.432;2023-05-20T05:03:27;22.15;;;17.05;;
41685;SDS011;27370;42.764;23.432;2023-05-20T05:05:56;19.48;;;13.88;;
41685;SDS011;27370;42.764;23.432;2023-05-20T05:08:23;20.63;;;11.98;;
41685;SDS011;27370;42.764;23.432;2023-05-20T05:10:51;17.45;;;10.43;;
41685;SDS011;27370;42.764;23.432;2023-05-20T05:13:16;17.52;;;9.90;;
41685;SDS011;27370;42.764;23.432;2023-05-20T05:15:42;16.33;;;9.65;;
41685;SDS011;27370;42.764;23.432;2023-05-20T05:18:07;16.88;;;9.50;;
41685;SDS011;27370;42.764;23.432;2023-05-20T05:20:34;15.77;;;9.52;;
41685;SDS011;27370;42.764;23.432;2023-05-20T05:23:00;14.80;;;9.93;;
41685;SDS011;27370;42.764;23.432;2023-05-20T05:25:25;17.77;;;10.43;;
41685;SDS011;27370;42.764;23.432;2023-05-20T05:27:51;14.55;;;10.05;;
41685;SDS011;27370;42.764;23.432;2023-05-20T05:30:19;17.52;;;10.15;;
41685;SDS011;27370;42.764;23.432;2023-05-20T05:32:46;22.08;;;10.35;;
41685;SDS011;27370;42.764;23.432;2023-05-20T05:35:11;15.23;;;10.13;;
41685;SDS011;27370;42.764;23.432;2023-05-20T05:37:38;14.70;;;9.95;;
41685;SDS011;27370;42.764;23.432;2023-05-20T05:40:04;15.68;;;10.73;;
41685;SDS011;27370;42.764;23.432;2023-05-20T05:42:32;15.82;;;10.15;;
41685;SDS011;27370;42.764;23.432;2023-05-20T05:44:57;15.43;;;10.38;;
41685;SDS011;27370;42.764;23.432;2023-05-20T05:47:25;16.23;;;11.07;;
41685;SDS011;27370;42.764;23.432;2023-05-20T05:49:56;16.88;;;11.75;;
41685;SDS011;27370;42.764;23.432;2023-05-20T05:52:23;16.55;;;10.75;;
41685;SDS011;27370;42.764;23.432;2023-05-20T05:54:48;12.30;;;8.77;;
41685;SDS011;27370;42.764;23.432;2023-05-20T05:57:14;13.90;;;8.98;;
41685;SDS011;27370;42.764;23.432;2023-05-20T05:59:39;14.95;;;9.52;;
41685;SDS011;27370;42.764;23.432;2023-05-20T06:02:05;14.98;;;8.70;;
41685;SDS011;27370;42.764;23.432;2023-05-20T06:04:31;15.90;;;9.18;;
41685;SDS011;27370;42.764;23.432;2023-05-20T06:06:57;14.80;;;8.27;;
41685;SDS011;27370;42.764;23.432;2023-05-20T06:09:23;14.45;;;8.90;;
41685;SDS011;27370;42.764;23.432;2023-05-20T06:11:50;13.55;;;8.25;;
41685;SDS011;27370;42.764;23.432;2023-05-20T06:14:15;14.57;;;8.57;;
41685;SDS011;27370;42.764;23.432;2023-05-20T06:16:41;13.82;;;8.68;;
41685;SDS011;27370;42.764;23.432;2023-05-20T06:19:07;15.35;;;8.45;;
41685;SDS011;27370;42.764;23.432;2023-05-20T06:21:33;13.43;;;8.85;;
41685;SDS011;27370;42.764;23.432;2023-05-20T06:24:00;15.15;;;9.38;;
41685;SDS011;27370;42.764;23.432;2023-05-20T06:26:25;15.35;;;8.80;;
41685;SDS011;27370;42.764;23.432;2023-05-20T06:28:51;15.68;;;8.55;;
41685;SDS011;27370;42.764;23.432;2023-05-20T06:31:17;16.88;;;9.50;;
41685;SDS011;27370;42.764;23.432;2023-05-20T06:33:43;16.65;;;9.00;;
41685;SDS011;27370;42.764;23.432;2023-05-20T06:36:11;17.95;;;9.70;;
41685;SDS011;27370;42.764;23.432;2023-05-20T06:38:36;13.68;;;8.00;;
41685;SDS011;27370;42.764;23.432;2023-05-20T06:41:02;14.55;;;8.38;;
41685;SDS011;27370;42.764;23.432;2023-05-20T06:43:29;13.45;;;8.30;;
41685;SDS011;27370;42.764;23.432;2023-05-20T06:46:08;13.57;;;7.88;;
41685;SDS011;27370;42.764;23.432;2023-05-20T06:48:52;14.75;;;7.95;;
41685;SDS011;27370;42.764;23.432;2023-05-20T06:51:18;15.68;;;8.30;;
41685;SDS011;27370;42.764;23.432;2023-05-20T06:53:46;14.85;;;7.55;;
41685;SDS011;27370;42.764;23.432;2023-05-20T06:56:12;12.60;;;7.38;;
41685;SDS011;27370;42.764;23.432;2023-05-20T06:58:38;15.48;;;7.75;;
41685;SDS011;27370;42.764;23.432;2023-05-20T07:01:03;12.45;;;7.30;;
41685;SDS011;27370;42.764;23.432;2023-05-20T07:03:30;12.70;;;7.45;;
41685;SDS011;27370;42.764;23.432;2023-05-20T07:05:55;11.95;;;7.75;;
41685;SDS011;27370;42.764;23.432;2023-05-20T07:08:22;14.68;;;7.57;;
41685;SDS011;27370;42.764;23.432;2023-05-20T07:10:49;13.73;;;7.45;;
41685;SDS011;27370;42.764;23.432;2023-05-20T07:13:18;14.95;;;7.75;;
41685;SDS011;27370;42.764;23.432;2023-05-20T07:15:47;12.98;;;7.35;;
41685;SDS011;27370;42.764;23.432;2023-05-20T07:18:13;15.20;;;7.10;;
41685;SDS011;27370;42.764;23.432;2023-05-20T07:20:40;13.57;;;7.40;;
41685;SDS011;27370;42.764;23.432;2023-05-20T07:23:12;12.05;;;6.55;;
41685;SDS011;27370;42.764;23.432;2023-05-20T07:25:40;12.23;;;6.15;;
41685;SDS011;27370;42.764;23.432;2023-05-20T07:28:06;11.68;;;7.28;;
41685;SDS011;27370;42.764;23.432;2023-05-20T07:30:32;13.70;;;7.35;;
41685;SDS011;27370;42.764;23.432;2023-05-20T07:33:10;11.90;;;6.80;;
41685;SDS011;27370;42.764;23.432;2023-05-20T07:35:37;13.30;;;6.78;;
41685;SDS011;27370;42.764;23.432;2023-05-20T07:38:02;11.77;;;7.30;;
41685;SDS011;27370;42.764;23.432;2023-05-20T07:40:28;15.65;;;6.68;;
41685;SDS011;27370;42.764;23.432;2023-05-20T07:42:53;10.55;;;6.20;;
41685;SDS011;27370;42.764;23.432;2023-05-20T07:45:19;10.80;;;6.68;;
41685;SDS011;27370;42.764;23.432;2023-05-20T07:47:44;11.35;;;6.38;;
41685;SDS011;27370;42.764;23.432;2023-05-20T07:50:11;9.73;;;6.00;;
41685;SDS011;27370;42.764;23.432;2023-05-20T07:52:37;10.73;;;6.13;;
41685;SDS011;27370;42.764;23.432;2023-05-20T07:55:02;11.25;;;5.75;;
41685;SDS011;27370;42.764;23.432;2023-05-20T07:57:29;10.73;;;5.80;;
41685;SDS011;27370;42.764;23.432;2023-05-20T07:59:55;12.65;;;5.45;;
41685;SDS011;27370;42.764;23.432;2023-05-20T08:02:20;10.57;;;5.43;;
41685;SDS011;27370;42.764;23.432;2023-05-20T08:04:46;8.80;;;5.07;;
41685;SDS011;27370;42.764;23.432;2023-05-20T08:07:12;9.65;;;5.35;;
41685;SDS011;27370;42.764;23.432;2023-05-20T08:09:49;8.77;;;4.45;;
41685;SDS011;27370;42.764;23.432;2023-05-20T08:12:15;12.23;;;5.40;;
41685;SDS011;27370;42.764;23.432;2023-05-20T08:14:41;8.77;;;5.10;;
41685;SDS011;27370;42.764;23.432;2023-05-20T08:17:09;10.95;;;5.35;;
41685;SDS011;27370;42.764;23.432;2023-05-20T08:19:35;13.65;;;5.13;;
41685;SDS011;27370;42.764;23.432;2023-05-20T08:22:01;7.82;;;4.38;;
41685;SDS011;27370;42.764;23.432;2023-05-20T08:24:26;9.73;;;5.00;;
41685;SDS011;27370;42.764;23.432;2023-05-20T08:26:53;9.43;;;4.78;;
41685;SDS011;27370;42.764;23.432;2023-05-20T08:29:21;8.43;;;4.93;;
41685;SDS011;27370;42.764;23.432;2023-05-20T08:31:46;8.93;;;5.00;;
41685;SDS011;27370;42.764;23.432;2023-05-20T08:34:12;9.55;;;4.70;;
41685;SDS011;27370;42.764;23.432;2023-05-20T08:36:38;11.43;;;5.00;;
41685;SDS011;27370;42.764;23.432;2023-05-20T08:39:04;10.93;;;4.85;;
41685;SDS011;27370;42.764;23.432;2023-05-20T08:41:30;7.68;;;4.22;;
41685;SDS011;27370;42.764;23.432;2023-05-20T08:43:56;9.40;;;4.50;;
41685;SDS011;27370;42.764;23.432;2023-05-20T08:46:25;8.98;;;4.85;;
41685;SDS011;27370;42.764;23.432;2023-05-20T08:48:53;8.57;;;4.43;;
41685;SDS011;27370;42.764;23.432;2023-05-20T08:51:19;9.15;;;4.63;;
41685;SDS011;27370;42.764;23.432;2023-05-20T08:53:47;8.23;;;4.13;;
41685;SDS011;27370;42.764;23.432;2023-05-20T08:56:13;8.35;;;4.90;;
41685;SDS011;27370;42.764;23.432;2023-05-20T08:58:40;10.63;;;4.80;;
41685;SDS011;27370;42.764;23.432;2023-05-20T09:01:07;9.68;;;4.15;;
41685;SDS011;27370;42.764;23.432;2023-05-20T09:03:32;9.02;;;5.03;;
41685;SDS011;27370;42.764;23.432;2023-05-20T09:06:05;8.45;;;4.82;;
41685;SDS011;27370;42.764;23.432;2023-05-20T09:08:33;11.48;;;4.80;;
41685;SDS011;27370;42.764;23.432;2023-05-20T09:10:59;8.57;;;4.95;;
41685;SDS011;27370;42.764;23.432;2023-05-20T09:13:25;8.52;;;4.70;;
41685;SDS011;27370;42.764;23.432;2023-05-20T09:15:52;8.50;;;4.65;;
41685;SDS011;27370;42.764;23.432;2023-05-20T09:18:17;9.45;;;4.85;;
41685;SDS011;27370;42.764;23.432;2023-05-20T09:20:45;9.52;;;5.28;;
41685;SDS011;27370;42.764;23.432;2023-05-20T09:23:11;9.23;;;4.85;;
41685;SDS011;27370;42.764;23.432;2023-05-20T09:25:37;9.48;;;5.28;;
41685;SDS011;27370;42.764;23.432;2023-05-20T09:28:06;10.13;;;5.35;;
41685;SDS011;27370;42.764;23.432;2023-05-20T09:30:32;12.90;;;5.82;;
41685;SDS011;27370;42.764;23.432;2023-05-20T09:32:59;10.52;;;5.40;;
41685;SDS011;27370;42.764;23.432;2023-05-20T09:35:26;16.23;;;5.85;;
41685;SDS011;27370;42.764;23.432;2023-05-20T09:37:52;10.98;;;4.80;;
41685;SDS011;27370;42.764;23.432;2023-05-20T09:40:21;9.25;;;4.93;;
41685;SDS011;27370;42.764;23.432;2023-05-20T09:42:53;9.35;;;4.90;;
41685;SDS011;27370;42.764;23.432;2023-05-20T09:45:21;10.05;;;4.95;;
41685;SDS011;27370;42.764;23.432;2023-05-20T09:47:49;8.95;;;5.22;;
41685;SDS011;27370;42.764;23.432;2023-05-20T09:50:16;10.57;;;6.40;;
41685;SDS011;27370;42.764;23.432;2023-05-20T09:52:45;11.50;;;5.53;;
41685;SDS011;27370;42.764;23.432;2023-05-20T09:55:11;12.02;;;5.30;;
41685;SDS011;27370;42.764;23.432;2023-05-20T09:57:39;9.07;;;4.75;;
41685;SDS011;27370;42.764;23.432;2023-05-20T10:00:05;8.70;;;4.30;;
41685;SDS011;27370;42.764;23.432;2023-05-20T10:02:41;9.70;;;4.32;;
41685;SDS011;27370;42.764;23.432;2023-05-20T10:12:54;8.00;;;3.42;;
41685;SDS011;27370;42.764;23.432;2023-05-20T10:21:15;8.60;;;3.50;;
41685;SDS011;27370;42.764;23.432;2023-05-20T10:23:41;8.07;;;3.47;;
41685;SDS011;27370;42.764;23.432;2023-05-20T10:26:07;10.40;;;4.18;;
41685;SDS011;27370;42.764;23.432;2023-05-20T10:28:33;9.00;;;3.90;;
41685;SDS011;27370;42.764;23.432;2023-05-20T10:31:14;7.32;;;3.85;;
41685;SDS011;27370;42.764;23.432;2023-05-20T10:33:47;9.25;;;4.03;;
41685;SDS011;27370;42.764;23.432;2023-05-20T10:36:24;11.82;;;4.47;;
41685;SDS011;27370;42.764;23.432;2023-05-20T10:38:54;11.30;;;4.22;;
41685;SDS011;27370;42.764;23.432;2023-05-20T10:41:25;9.27;;;4.32;;
41685;SDS011;27370;42.764;23.432;2023-05-20T10:43:58;8.25;;;4.28;;
41685;SDS011;27370;42.764;23.432;2023-05-20T10:46:28;12.77;;;5.68;;
41685;SDS011;27370;42.764;23.432;2023-05-20T10:48:55;8.65;;;4.95;;
41685;SDS011;27370;42.764;23.432;2023-05-20T10:51:22;7.82;;;4.30;;
41685;SDS011;27370;42.764;23.432;2023-05-20T10:53:50;7.30;;;4.13;;
41685;SDS011;27370;42.764;23.432;2023-05-20T10:56:20;7.95;;;3.95;;
41685;SDS011;27370;42.764;23.432;2023-05-20T10:58:47;13.32;;;4.97;;
41685;SDS011;27370;42.764;23.432;2023-05-20T11:01:13;7.22;;;3.92;;
41685;SDS011;27370;42.764;23.432;2023-05-20T11:03:40;8.30;;;3.88;;
41685;SDS011;27370;42.764;23.432;2023-05-20T11:06:11;8.68;;;3.80;;
41685;SDS011;27370;42.764;23.432;2023-05-20T11:08:36;9.50;;;4.22;;
41685;SDS011;27370;42.764;23.432;2023-05-20T11:11:02;9.73;;;4.28;;
41685;SDS011;27370;42.764;23.432;2023-05-20T11:13:28;10.65;;;4.15;;
41685;SDS011;27370;42.764;23.432;2023-05-20T11:15:55;9.43;;;4.57;;
41685;SDS011;27370;42.764;23.432;2023-05-20T11:18:22;8.63;;;4.28;;
41685;SDS011;27370;42.764;23.432;2023-05-20T11:20:47;9.63;;;4.13;;
41685;SDS011;27370;42.764;23.432;2023-05-20T11:23:13;7.97;;;4.22;;
41685;SDS011;27370;42.764;23.432;2023-05-20T11:25:39;7.10;;;3.92;;
41685;SDS011;27370;42.764;23.432;2023-05-20T11:28:10;7.75;;;3.78;;
41685;SDS011;27370;42.764;23.432;2023-05-20T11:30:37;9.23;;;4.20;;
41685;SDS011;27370;42.764;23.432;2023-05-20T11:33:03;9.00;;;4.38;;
41685;SDS011;27370;42.764;23.432;2023-05-20T11:35:30;8.30;;;4.28;;
41685;SDS011;27370;42.764;23.432;2023-05-20T11:38:00;8.95;;;4.57;;
41685;SDS011;27370;42.764;23.432;2023-05-20T11:40:29;12.18;;;4.00;;
41685;SDS011;27370;42.764;23.432;2023-05-20T11:42:56;7.85;;;4.00;;
41685;SDS011;27370;42.764;23.432;2023-05-20T11:45:24;9.85;;;4.30;;
41685;SDS011;27370;42.764;23.432;2023-05-20T11:47:59;7.72;;;3.85;;
41685;SDS011;27370;42.764;23.432;2023-05-20T11:50:26;7.85;;;4.50;;
41685;SDS011;27370;42.764;23.432;2023-05-20T11:52:58;12.52;;;4.57;;
41685;SDS011;27370;42.764;23.432;2023-05-20T11:55:27;8.57;;;4.60;;
41685;SDS011;27370;42.764;23.432;2023-05-20T11:57:53;8.80;;;4.32;;
41685;SDS011;27370;42.764;23.432;2023-05-20T12:00:21;10.30;;;4.57;;
41685;SDS011;27370;42.764;23.432;2023-05-20T12:02:47;8.70;;;4.80;;
41685;SDS011;27370;42.764;23.432;2023-05-20T12:05:13;9.88;;;4.63;;
41685;SDS011;27370;42.764;23.432;2023-05-20T12:07:39;11.48;;;4.03;;
41685;SDS011;27370;42.764;23.432;2023-05-20T12:10:05;8.70;;;4.43;;
41685;SDS011;27370;42.764;23.432;2023-05-20T12:12:31;7.85;;;4.40;;
41685;SDS011;27370;42.764;23.432;2023-05-20T12:14:56;8.27;;;4.05;;
41685;SDS011;27370;42.764;23.432;2023-05-20T12:17:22;8.35;;;4.13;;
41685;SDS011;27370;42.764;23.432;2023-05-20T12:19:47;7.88;;;4.03;;
41685;SDS011;27370;42.764;23.432;2023-05-20T12:22:13;8.75;;;4.22;;
41685;SDS011;27370;42.764;23.432;2023-05-20T12:24:38;10.38;;;3.75;;
41685;SDS011;27370;42.764;23.432;2023-05-20T12:27:04;6.72;;;3.45;;
41685;SDS011;27370;42.764;23.432;2023-05-20T12:29:30;5.72;;;2.58;;
41685;SDS011;27370;42.764;23.432;2023-05-20T12:31:56;4.78;;;2.50;;
41685;SDS011;27370;42.764;23.432;2023-05-20T12:34:22;8.35;;;3.03;;
41685;SDS011;27370;42.764;23.432;2023-05-20T12:36:47;6.75;;;3.10;;
41685;SDS011;27370;42.764;23.432;2023-05-20T12:39:13;5.70;;;2.65;;
41685;SDS011;27370;42.764;23.432;2023-05-20T12:41:42;10.80;;;3.35;;
41685;SDS011;27370;42.764;23.432;2023-05-20T12:44:07;8.40;;;3.60;;
41685;SDS011;27370;42.764;23.432;2023-05-20T12:46:34;7.90;;;3.60;;
41685;SDS011;27370;42.764;23.432;2023-05-20T12:49:00;7.72;;;3.42;;
41685;SDS011;27370;42.764;23.432;2023-05-20T12:51:26;10.77;;;3.58;;
41685;SDS011;27370;42.764;23.432;2023-05-20T12:53:52;9.63;;;3.90;;
41685;SDS011;27370;42.764;23.432;2023-05-20T12:56:17;7.90;;;3.65;;
41685;SDS011;27370;42.764;23.432;2023-05-20T12:58:43;8.82;;;3.47;;
41685;SDS011;27370;42.764;23.432;2023-05-20T13:01:09;9.77;;;4.30;;
41685;SDS011;27370;42.764;23.432;2023-05-20T13:03:34;7.90;;;4.28;;
41685;SDS011;27370;42.764;23.432;2023-05-20T13:06:01;8.07;;;4.18;;
41685;SDS011;27370;42.764;23.432;2023-05-20T13:08:28;8.88;;;4.22;;
41685;SDS011;27370;42.764;23.432;2023-05-20T13:10:53;9.32;;;4.30;;
41685;SDS011;27370;42.764;23.432;2023-05-20T13:13:19;10.93;;;3.97;;
41685;SDS011;27370;42.764;23.432;2023-05-20T13:15:46;7.90;;;4.00;;
41685;SDS011;27370;42.764;23.432;2023-05-20T13:18:15;8.10;;;3.80;;
41685;SDS011;27370;42.764;23.432;2023-05-20T13:20:42;8.55;;;4.05;;
41685;SDS011;27370;42.764;23.432;2023-05-20T13:23:08;8.77;;;3.97;;
41685;SDS011;27370;42.764;23.432;2023-05-20T13:25:33;7.30;;;3.90;;
41685;SDS011;27370;42.764;23.432;2023-05-20T13:27:59;7.45;;;3.88;;
41685;SDS011;27370;42.764;23.432;2023-05-20T13:30:25;7.28;;;3.70;;
41685;SDS011;27370;42.764;23.432;2023-05-20T13:32:52;8.15;;;3.63;;
41685;SDS011;27370;42.764;23.432;2023-05-20T13:35:17;7.60;;;3.60;;
41685;SDS011;27370;42.764;23.432;2023-05-20T13:37:43;5.50;;;3.10;;
41685;SDS011;27370;42.764;23.432;2023-05-20T13:40:09;6.03;;;3.05;;
41685;SDS011;27370;42.764;23.432;2023-05-20T13:42:35;7.75;;;3.42;;
41685;SDS011;27370;42.764;23.432;2023-05-20T13:45:01;8.02;;;3.45;;
41685;SDS011;27370;42.764;23.432;2023-05-20T13:47:26;7.43;;;3.50;;
41685;SDS011;27370;42.764;23.432;2023-05-20T13:49:51;9.32;;;3.50;;
41685;SDS011;27370;42.764;23.432;2023-05-20T13:52:17;7.63;;;3.75;;
41685;SDS011;27370;42.764;23.432;2023-05-20T13:54:42;12.18;;;4.00;;
41685;SDS011;27370;42.764;23.432;2023-05-20T13:57:10;7.47;;;3.50;;
41685;SDS011;27370;42.764;23.432;2023-05-20T13:59:36;6.10;;;3.20;;
41685;SDS011;27370;42.764;23.432;2023-05-20T14:02:01;7.95;;;3.92;;
41685;SDS011;27370;42.764;23.432;2023-05-20T14:04:27;9.10;;;4.18;;
41685;SDS011;27370;42.764;23.432;2023-05-20T14:06:53;8.20;;;4.50;;
41685;SDS011;27370;42.764;23.432;2023-05-20T14:09:18;10.00;;;4.40;;
41685;SDS011;27370;42.764;23.432;2023-05-20T14:11:44;10.45;;;4.28;;
41685;SDS011;27370;42.764;23.432;2023-05-20T14:14:09;10.02;;;4.47;;
41685;SDS011;27370;42.764;23.432;2023-05-20T14:16:35;8.52;;;4.47;;
41685;SDS011;27370;42.764;23.432;2023-05-20T14:19:00;8.70;;;4.43;;
41685;SDS011;27370;42.764;23.432;2023-05-20T14:21:26;9.02;;;4.40;;
41685;SDS011;27370;42.764;23.432;2023-05-20T14:23:51;9.13;;;4.22;;
41685;SDS011;27370;42.764;23.432;2023-05-20T14:26:17;9.18;;;4.47;;
41685;SDS011;27370;42.764;23.432;2023-05-20T14:28:42;8.68;;;4.68;;
41685;SDS011;27370;42.764;23.432;2023-05-20T14:31:08;8.30;;;4.30;;